createdAt,value
2017-12-19T00:01:16.354Z,3.30
2017-12-19T00:03:50.119Z,3.30
2017-12-19T00:06:18.432Z,3.30
2017-12-19T00:08:46.650Z,3.50
2017-12-19T00:11:14.928Z,3.50
2017-12-19T00:13:44.395Z,3.40
2017-12-19T00:16:12.776Z,3.30
2017-12-19T00:18:41.051Z,3.20
2017-12-19T00:21:09.309Z,3.10
2017-12-19T00:23:37.607Z,3.10
2017-12-19T00:26:06.994Z,3.10
2017-12-19T00:28:35.590Z,3.10
2017-12-19T00:31:03.855Z,3.00
2017-12-19T00:33:32.118Z,3.00
2017-12-19T00:36:00.409Z,3.10
2017-12-19T00:38:29.768Z,3.20
2017-12-19T00:40:59.078Z,3.20
2017-12-19T00:43:28.090Z,3.20
2017-12-19T00:45:56.343Z,3.20
2017-12-19T00:48:24.850Z,3.40
2017-12-19T00:50:53.155Z,3.40
2017-12-19T00:53:21.579Z,3.40
2017-12-19T00:55:49.859Z,3.40
2017-12-19T00:58:18.298Z,3.50
2017-12-19T01:00:46.672Z,3.60
2017-12-19T01:03:14.959Z,3.70
2017-12-19T01:05:43.430Z,3.60
2017-12-19T01:08:11.679Z,3.50
2017-12-19T01:10:40.380Z,3.40
2017-12-19T01:13:08.622Z,3.30
2017-12-19T01:15:36.875Z,3.30
2017-12-19T01:18:05.159Z,3.30
2017-12-19T01:20:34.329Z,3.30
2017-12-19T01:23:02.723Z,3.20
2017-12-19T01:25:31.763Z,3.30
2017-12-19T01:28:00.203Z,3.30
2017-12-19T01:30:28.483Z,3.30
2017-12-19T01:32:57.818Z,3.30
2017-12-19T01:35:26.135Z,3.30
2017-12-19T01:37:54.384Z,3.30
2017-12-19T01:40:22.659Z,3.40
2017-12-19T01:42:50.964Z,3.40
2017-12-19T01:45:19.243Z,3.40
2017-12-19T01:47:47.522Z,3.50
2017-12-19T01:50:15.795Z,3.40
2017-12-19T01:52:44.049Z,3.50
2017-12-19T01:55:12.491Z,3.50
2017-12-19T01:57:40.932Z,3.40
2017-12-19T02:00:09.195Z,3.50
2017-12-19T02:02:37.460Z,3.50
2017-12-19T02:05:05.706Z,3.60
2017-12-19T02:07:33.958Z,3.50
2017-12-19T02:10:02.239Z,3.60
2017-12-19T02:12:31.272Z,3.50
2017-12-19T02:14:59.526Z,3.50
2017-12-19T02:17:28.042Z,3.50
2017-12-19T02:19:56.299Z,3.50
2017-12-19T02:22:24.551Z,3.50
2017-12-19T02:24:53.411Z,3.60
2017-12-19T02:27:21.671Z,3.70
2017-12-19T02:29:50.216Z,3.70
2017-12-19T02:32:18.532Z,3.60
2017-12-19T02:34:46.766Z,3.70
2017-12-19T02:37:15.027Z,3.80
2017-12-19T02:39:44.130Z,3.60
2017-12-19T02:42:12.399Z,3.50
2017-12-19T02:44:41.424Z,3.50
2017-12-19T02:47:09.703Z,3.40
2017-12-19T02:49:38.293Z,3.50
2017-12-19T02:52:06.531Z,3.60
2017-12-19T02:54:35.571Z,3.70
2017-12-19T02:57:03.827Z,3.60
2017-12-19T02:59:32.078Z,3.70
2017-12-19T03:02:01.631Z,3.70
2017-12-19T03:04:29.887Z,3.70
2017-12-19T03:06:58.423Z,3.80
2017-12-19T03:09:26.723Z,3.80
2017-12-19T03:11:57.105Z,3.60
2017-12-19T03:14:25.358Z,3.60
2017-12-19T03:16:53.703Z,3.60
2017-12-19T03:19:22.727Z,3.60
2017-12-19T03:21:50.983Z,3.50
2017-12-19T03:24:19.325Z,3.60
2017-12-19T03:26:47.584Z,3.60
2017-12-19T03:29:15.831Z,3.50
2017-12-19T03:31:45.203Z,3.50
2017-12-19T03:34:13.484Z,3.70
2017-12-19T03:36:41.936Z,3.90
2017-12-19T03:39:10.212Z,3.90
2017-12-19T03:41:38.463Z,3.90
2017-12-19T03:44:06.775Z,3.80
2017-12-19T03:46:35.645Z,3.90
2017-12-19T03:49:03.891Z,3.80
2017-12-19T03:51:32.213Z,3.70
2017-12-19T03:54:00.493Z,3.80
2017-12-19T03:56:28.749Z,3.90
2017-12-19T03:58:57.026Z,3.90
2017-12-19T04:01:25.303Z,3.90
2017-12-19T04:03:53.555Z,3.90
2017-12-19T04:06:21.865Z,3.80
2017-12-19T04:08:50.210Z,3.70
2017-12-19T04:11:18.455Z,3.60
2017-12-19T04:13:46.705Z,3.60
2017-12-19T04:16:14.974Z,3.50
2017-12-19T04:18:43.285Z,3.50
2017-12-19T04:21:13.686Z,3.40
2017-12-19T04:23:41.966Z,3.40
2017-12-19T04:26:10.444Z,3.50
2017-12-19T04:28:38.702Z,3.50
2017-12-19T04:31:07.322Z,3.60
2017-12-19T04:33:35.586Z,3.80
2017-12-19T04:36:03.841Z,3.90
2017-12-19T04:38:32.106Z,3.90
2017-12-19T04:41:00.356Z,3.70
2017-12-19T04:43:28.638Z,3.70
2017-12-19T04:45:56.919Z,3.70
2017-12-19T04:48:25.271Z,3.80
2017-12-19T04:50:54.322Z,3.70
2017-12-19T04:53:22.799Z,3.70
2017-12-19T04:55:52.225Z,3.60
2017-12-19T04:58:20.476Z,3.70
2017-12-19T05:00:48.865Z,3.60
2017-12-19T05:03:17.114Z,3.70
2017-12-19T05:05:45.367Z,3.60
2017-12-19T05:08:13.647Z,3.60
2017-12-19T05:10:41.903Z,3.60
2017-12-19T05:13:10.923Z,3.70
2017-12-19T05:15:39.645Z,3.70
2017-12-19T05:18:07.897Z,3.70
2017-12-19T05:20:36.371Z,3.70
2017-12-19T05:23:04.655Z,3.70
2017-12-19T05:25:32.968Z,3.70
2017-12-19T05:28:01.212Z,3.80
2017-12-19T05:30:29.482Z,3.80
2017-12-19T05:32:57.775Z,3.80
2017-12-19T05:35:26.036Z,3.80
2017-12-19T05:37:54.394Z,3.80
2017-12-19T05:40:23.406Z,3.80
2017-12-19T05:42:51.654Z,3.80
2017-12-19T05:45:20.147Z,3.80
2017-12-19T05:47:49.168Z,3.80
2017-12-19T05:50:17.415Z,3.80
2017-12-19T05:52:45.901Z,3.90
2017-12-19T05:55:14.917Z,3.80
2017-12-19T05:57:43.183Z,3.80
2017-12-19T06:00:11.755Z,3.80
2017-12-19T06:02:40.188Z,3.90
2017-12-19T06:05:08.431Z,3.90
2017-12-19T06:07:36.710Z,4.00
2017-12-19T06:10:05.134Z,4.00
2017-12-19T06:12:33.392Z,4.00
2017-12-19T06:15:01.668Z,4.00
2017-12-19T06:17:29.910Z,4.10
2017-12-19T06:19:58.162Z,4.30
2017-12-19T06:22:27.532Z,4.40
2017-12-19T06:24:55.777Z,4.30
2017-12-19T06:27:24.234Z,4.20
2017-12-19T06:29:52.540Z,4.20
2017-12-19T06:32:21.556Z,4.20
2017-12-19T06:34:49.819Z,4.20
2017-12-19T06:37:18.872Z,4.10
2017-12-19T06:39:47.907Z,4.00
2017-12-19T06:42:16.151Z,4.00
2017-12-19T06:44:44.506Z,4.00
2017-12-19T06:47:12.749Z,3.90
2017-12-19T06:49:40.998Z,4.00
2017-12-19T06:52:09.283Z,3.90
2017-12-19T06:54:37.526Z,4.00
2017-12-19T06:57:06.547Z,3.90
2017-12-19T06:59:35.261Z,4.00
2017-12-19T07:02:03.558Z,4.00
2017-12-19T07:04:31.931Z,4.00
2017-12-19T07:07:00.299Z,4.00
2017-12-19T07:09:28.552Z,4.00
2017-12-19T07:11:56.791Z,4.10
2017-12-19T07:14:27.024Z,4.10
2017-12-19T07:16:56.038Z,4.10
2017-12-19T07:19:24.290Z,4.00
2017-12-19T07:21:52.567Z,4.10
2017-12-19T07:24:20.816Z,4.10
2017-12-19T07:26:49.067Z,4.10
2017-12-19T07:29:17.658Z,4.10
2017-12-19T07:31:45.907Z,4.10
2017-12-19T07:34:14.404Z,4.10
2017-12-19T07:36:42.692Z,4.10
2017-12-19T07:39:11.072Z,4.00
2017-12-19T07:41:39.467Z,4.00
2017-12-19T07:44:07.752Z,3.90
2017-12-19T07:46:36.068Z,3.90
2017-12-19T07:49:04.310Z,3.90
2017-12-19T07:51:33.382Z,3.80
2017-12-19T07:54:02.546Z,3.80
2017-12-19T07:56:30.801Z,3.90
2017-12-19T07:58:59.079Z,4.00
2017-12-19T08:01:28.346Z,4.10
2017-12-19T08:03:56.605Z,4.10
2017-12-19T08:06:24.884Z,4.30
2017-12-19T08:08:53.207Z,4.30
2017-12-19T08:11:22.228Z,4.40
2017-12-19T08:13:50.595Z,4.40
2017-12-19T08:16:19.606Z,4.40
2017-12-19T08:18:47.867Z,4.40
2017-12-19T08:21:16.494Z,4.50
2017-12-19T08:23:44.739Z,4.50
2017-12-19T08:26:13.063Z,4.60
2017-12-19T08:28:41.339Z,4.60
2017-12-19T08:31:09.828Z,4.60
2017-12-19T08:33:38.081Z,4.60
2017-12-19T08:36:06.969Z,4.70
2017-12-19T08:38:35.222Z,4.70
2017-12-19T08:41:03.796Z,4.70
2017-12-19T08:43:32.083Z,4.80
2017-12-19T08:46:00.335Z,4.90
2017-12-19T08:48:28.796Z,4.90
2017-12-19T08:50:57.186Z,4.90
2017-12-19T08:53:26.211Z,5.00
2017-12-19T08:55:54.527Z,5.00
2017-12-19T08:58:23.950Z,5.00
2017-12-19T09:00:52.207Z,5.00
2017-12-19T09:03:20.595Z,5.00
2017-12-19T09:05:48.867Z,5.10
2017-12-19T09:08:17.127Z,5.30
2017-12-19T09:10:47.612Z,5.40
2017-12-19T09:13:16.916Z,5.60
2017-12-19T09:15:45.926Z,5.60
2017-12-19T09:18:14.176Z,5.60
2017-12-19T09:20:43.621Z,5.60
2017-12-19T09:23:14.079Z,5.60
2017-12-19T09:25:43.407Z,5.70
2017-12-19T09:28:13.599Z,5.50
2017-12-19T09:30:41.975Z,5.50
2017-12-19T09:33:10.406Z,5.50
2017-12-19T09:35:38.734Z,5.60
2017-12-19T09:38:07.059Z,5.60
2017-12-19T09:40:35.578Z,5.70
2017-12-19T09:43:03.820Z,5.70
2017-12-19T09:45:32.251Z,5.70
2017-12-19T09:48:00.823Z,5.70
2017-12-19T09:50:29.106Z,5.70
2017-12-19T09:52:58.316Z,5.70
2017-12-19T09:55:26.647Z,5.60
2017-12-19T09:57:55.066Z,5.70
2017-12-19T10:00:23.335Z,5.70
2017-12-19T10:02:51.746Z,5.70
2017-12-19T10:05:20.202Z,5.70
2017-12-19T10:07:48.455Z,5.70
2017-12-19T10:10:16.814Z,5.70
2017-12-19T10:12:45.171Z,5.90
2017-12-19T10:15:13.407Z,6.00
2017-12-19T10:17:41.679Z,6.00
2017-12-19T10:20:10.763Z,6.00
2017-12-19T10:22:39.042Z,6.00
2017-12-19T10:25:07.439Z,5.90
2017-12-19T10:27:35.691Z,5.90
2017-12-19T10:30:04.089Z,5.90
2017-12-19T10:32:32.352Z,5.90
2017-12-19T10:35:00.654Z,5.90
2017-12-19T10:37:29.156Z,5.90
2017-12-19T10:39:57.550Z,5.90
2017-12-19T10:42:26.578Z,6.00
2017-12-19T10:44:55.831Z,5.90
2017-12-19T10:47:24.401Z,6.10
2017-12-19T10:49:52.639Z,6.10
2017-12-19T10:52:20.959Z,6.00
2017-12-19T10:54:49.229Z,6.10
2017-12-19T10:57:17.482Z,6.00
2017-12-19T10:59:45.739Z,5.90
2017-12-19T11:02:14.011Z,6.00
2017-12-19T11:04:43.502Z,6.00
2017-12-19T11:07:12.511Z,6.00
2017-12-19T11:09:41.023Z,6.00
2017-12-19T11:12:09.276Z,6.10
2017-12-19T11:14:38.518Z,6.10
2017-12-19T11:17:06.792Z,6.20
2017-12-19T11:19:35.052Z,6.20
2017-12-19T11:22:03.342Z,6.20
2017-12-19T11:24:31.747Z,6.20
2017-12-19T11:27:00.780Z,6.30
2017-12-19T11:29:29.031Z,6.20
2017-12-19T11:31:57.561Z,6.30
2017-12-19T11:34:25.855Z,6.20
2017-12-19T11:36:54.102Z,6.10
2017-12-19T11:39:22.495Z,6.10
2017-12-19T11:41:51.915Z,6.10
2017-12-19T11:44:20.290Z,6.10
2017-12-19T11:46:48.567Z,6.10
2017-12-19T11:49:16.826Z,6.20
2017-12-19T11:51:45.074Z,6.20
2017-12-19T11:54:13.600Z,6.20
2017-12-19T11:56:41.846Z,6.30
2017-12-19T11:59:10.962Z,6.30
2017-12-19T12:01:39.291Z,6.40
2017-12-19T12:04:08.337Z,6.30
2017-12-19T12:06:36.593Z,6.20
2017-12-19T12:09:06.879Z,6.20
2017-12-19T12:11:37.067Z,6.20
2017-12-19T12:14:05.348Z,6.20
2017-12-19T12:16:34.835Z,6.20
2017-12-19T12:19:04.055Z,6.20
2017-12-19T12:21:32.359Z,6.30
2017-12-19T12:24:00.643Z,6.40
2017-12-19T12:26:29.655Z,6.30
2017-12-19T12:28:57.902Z,6.30
2017-12-19T12:31:26.941Z,6.20
2017-12-19T12:33:55.518Z,6.20
2017-12-19T12:36:26.972Z,6.20
2017-12-19T12:38:55.491Z,6.20
2017-12-19T12:41:24.382Z,6.10
2017-12-19T12:43:52.760Z,6.10
2017-12-19T12:46:21.243Z,6.10
2017-12-19T12:48:49.511Z,6.10
2017-12-19T12:51:17.903Z,6.10
2017-12-19T12:53:46.298Z,6.10
2017-12-19T12:56:15.318Z,6.20
2017-12-19T12:58:44.574Z,6.30
2017-12-19T13:01:12.939Z,6.30
2017-12-19T13:03:41.340Z,6.30
2017-12-19T13:06:09.711Z,6.40
2017-12-19T13:08:38.111Z,6.40
2017-12-19T13:11:07.578Z,6.40
2017-12-19T13:13:35.828Z,6.40
2017-12-19T13:16:04.142Z,6.40
2017-12-19T13:18:32.381Z,6.40
2017-12-19T13:21:01.867Z,6.40
2017-12-19T13:23:30.210Z,6.30
2017-12-19T13:25:58.591Z,6.30
2017-12-19T13:28:26.971Z,6.40
2017-12-19T13:30:55.382Z,6.40
2017-12-19T13:33:23.639Z,6.30
2017-12-19T13:35:51.899Z,6.30
2017-12-19T13:38:20.171Z,6.20
2017-12-19T13:40:48.550Z,6.20
2017-12-19T13:43:16.808Z,6.10
2017-12-19T13:45:46.625Z,6.10
2017-12-19T13:48:14.906Z,6.10
2017-12-19T13:50:43.303Z,6.10
2017-12-19T13:53:11.586Z,6.10
2017-12-19T13:55:39.944Z,6.10
2017-12-19T13:58:08.194Z,6.10
2017-12-19T14:00:36.462Z,6.10
2017-12-19T14:03:04.775Z,6.20
2017-12-19T14:05:33.048Z,6.20
2017-12-19T14:08:01.543Z,6.20
2017-12-19T14:10:29.787Z,6.20
2017-12-19T14:12:58.084Z,6.20
2017-12-19T14:15:26.363Z,6.00
2017-12-19T14:17:54.607Z,6.00
2017-12-19T14:20:22.861Z,6.10
2017-12-19T14:22:51.138Z,6.10
2017-12-19T14:25:19.397Z,6.10
2017-12-19T14:27:47.640Z,6.10
2017-12-19T14:30:16.051Z,6.10
2017-12-19T14:32:44.287Z,6.00
2017-12-19T14:35:12.591Z,6.10
2017-12-19T14:37:40.873Z,6.10
2017-12-19T14:40:09.129Z,6.00
2017-12-19T14:42:37.726Z,6.00
2017-12-19T14:45:06.011Z,6.00
2017-12-19T14:47:34.268Z,6.00
2017-12-19T14:50:02.752Z,6.00
2017-12-19T14:52:31.071Z,6.10
2017-12-19T14:54:59.326Z,6.10
2017-12-19T14:57:27.703Z,6.00
2017-12-19T14:59:55.975Z,6.00
2017-12-19T15:02:24.239Z,6.00
2017-12-19T15:04:52.527Z,6.00
2017-12-19T15:07:20.821Z,6.00
2017-12-19T15:09:49.355Z,5.90
2017-12-19T15:12:17.694Z,5.90
2017-12-19T15:14:47.159Z,5.90
2017-12-19T15:17:15.405Z,5.90
2017-12-19T15:19:43.647Z,5.90
2017-12-19T15:22:13.062Z,5.80
2017-12-19T15:24:42.106Z,5.70
2017-12-19T15:27:10.347Z,5.70
2017-12-19T15:29:38.643Z,5.80
2017-12-19T15:32:06.894Z,5.80
2017-12-19T15:34:35.167Z,5.70
2017-12-19T15:37:04.002Z,5.70
2017-12-19T15:39:32.247Z,5.70
2017-12-19T15:42:00.556Z,5.90
2017-12-19T15:44:28.811Z,6.00
2017-12-19T15:46:57.317Z,6.10
2017-12-19T15:49:25.592Z,6.10
2017-12-19T15:51:53.931Z,6.00
2017-12-19T15:54:22.419Z,5.90
2017-12-19T15:56:50.663Z,5.90
2017-12-19T15:59:19.834Z,6.00
2017-12-19T16:01:48.071Z,5.90
2017-12-19T16:04:16.336Z,6.10
2017-12-19T16:06:44.803Z,6.10
2017-12-19T16:09:15.931Z,5.90
2017-12-19T16:11:44.303Z,5.90
2017-12-19T16:14:12.570Z,5.80
2017-12-19T16:16:41.104Z,5.80
2017-12-19T16:19:09.351Z,5.80
2017-12-19T16:21:37.715Z,5.90
2017-12-19T16:24:06.003Z,5.80
2017-12-19T16:26:34.323Z,5.90
2017-12-19T16:29:05.271Z,5.90
2017-12-19T16:31:33.579Z,5.90
2017-12-19T16:34:02.795Z,6.00
2017-12-19T16:36:32.107Z,6.00
2017-12-19T16:39:02.309Z,6.00
2017-12-19T16:41:30.598Z,6.00
2017-12-19T16:43:59.563Z,6.00
2017-12-19T16:46:27.836Z,6.00
2017-12-19T16:48:56.127Z,6.00
2017-12-19T16:51:24.535Z,6.00
2017-12-19T16:53:53.562Z,5.90
2017-12-19T16:56:21.810Z,5.90
2017-12-19T16:58:50.091Z,6.00
2017-12-19T17:01:19.447Z,6.00
2017-12-19T17:03:47.703Z,6.00
2017-12-19T17:06:16.394Z,5.90
2017-12-19T17:08:44.656Z,5.90
2017-12-19T17:11:12.906Z,5.80
2017-12-19T17:13:41.187Z,5.90
2017-12-19T17:16:10.206Z,6.00
2017-12-19T17:18:38.457Z,6.00
2017-12-19T17:21:07.847Z,6.10
2017-12-19T17:23:37.122Z,6.00
2017-12-19T17:26:05.386Z,6.00
2017-12-19T17:28:33.743Z,6.10
2017-12-19T17:31:01.996Z,6.10
2017-12-19T17:33:31.016Z,6.20
2017-12-19T17:35:59.291Z,6.20
2017-12-19T17:38:27.593Z,6.20
2017-12-19T17:40:55.794Z,6.00
2017-12-19T17:43:24.090Z,5.90
2017-12-19T17:45:52.547Z,6.00
2017-12-19T17:48:20.831Z,6.10
2017-12-19T17:50:49.280Z,6.10
2017-12-19T17:53:17.519Z,6.00
2017-12-19T17:55:45.773Z,6.00
2017-12-19T17:58:14.819Z,6.00
2017-12-19T18:00:43.072Z,6.00
2017-12-19T18:03:11.320Z,6.00
2017-12-19T18:05:39.611Z,6.10
2017-12-19T18:08:09.827Z,6.00
2017-12-19T18:10:38.874Z,5.90
2017-12-19T18:13:07.563Z,6.00
2017-12-19T18:15:35.815Z,6.00
2017-12-19T18:18:04.067Z,5.90
2017-12-19T18:20:33.564Z,5.90
2017-12-19T18:23:03.950Z,6.00
2017-12-19T18:25:32.194Z,5.90
2017-12-19T18:28:00.704Z,6.00
2017-12-19T18:30:28.943Z,6.00
2017-12-19T18:32:57.327Z,5.90
2017-12-19T18:35:26.399Z,5.90
2017-12-19T18:37:54.647Z,5.90
2017-12-19T18:40:23.027Z,5.80
2017-12-19T18:42:51.303Z,5.70
2017-12-19T18:45:19.919Z,5.80
2017-12-19T18:47:48.177Z,5.70
2017-12-19T18:50:16.540Z,5.70
2017-12-19T18:52:44.778Z,5.90
2017-12-19T18:55:13.095Z,5.80
2017-12-19T18:57:41.416Z,5.70
2017-12-19T19:00:09.666Z,5.60
2017-12-19T19:02:38.018Z,5.70
2017-12-19T19:05:06.396Z,5.80
2017-12-19T19:07:34.636Z,5.90
2017-12-19T19:10:02.971Z,6.00
2017-12-19T19:12:31.251Z,6.00
2017-12-19T19:14:59.499Z,6.00
2017-12-19T19:17:27.755Z,6.00
2017-12-19T19:19:56.263Z,5.90
2017-12-19T19:22:24.556Z,5.90
2017-12-19T19:24:52.815Z,5.90
2017-12-19T19:27:21.094Z,5.90
2017-12-19T19:29:49.342Z,5.90
2017-12-19T19:32:17.783Z,5.90
2017-12-19T19:34:48.018Z,6.10
2017-12-19T19:37:17.039Z,6.00
2017-12-19T19:39:45.355Z,6.00
2017-12-19T19:42:14.114Z,6.10
2017-12-19T19:44:42.371Z,6.00
2017-12-19T19:47:10.834Z,6.00
2017-12-19T19:49:39.971Z,6.10
2017-12-19T19:52:08.229Z,6.00
2017-12-19T19:54:36.551Z,6.00
2017-12-19T19:57:04.859Z,6.00
2017-12-19T19:59:33.102Z,5.90
2017-12-19T20:02:01.356Z,5.90
2017-12-19T20:04:30.155Z,5.90
2017-12-19T20:06:58.452Z,5.80
2017-12-19T20:09:26.695Z,5.80
2017-12-19T20:11:55.307Z,5.90
2017-12-19T20:14:24.506Z,5.90
2017-12-19T20:16:52.754Z,5.80
2017-12-19T20:19:21.026Z,5.70
2017-12-19T20:21:49.286Z,5.70
2017-12-19T20:24:17.537Z,5.80
2017-12-19T20:26:46.195Z,5.80
2017-12-19T20:29:14.447Z,5.80
2017-12-19T20:31:43.775Z,5.90
2017-12-19T20:34:12.079Z,5.90
2017-12-19T20:36:40.536Z,5.90
2017-12-19T20:39:09.003Z,6.00
2017-12-19T20:41:37.349Z,6.00
2017-12-19T20:44:05.599Z,6.00
2017-12-19T20:46:34.626Z,6.00
2017-12-19T20:49:03.435Z,5.90
2017-12-19T20:51:31.728Z,5.90
2017-12-19T20:54:00.111Z,5.90
2017-12-19T20:56:28.515Z,5.90
2017-12-19T20:58:57.772Z,5.70
2017-12-19T21:01:26.170Z,5.70
2017-12-19T21:03:54.443Z,5.70
2017-12-19T21:06:22.708Z,5.60
2017-12-19T21:08:50.956Z,5.60
2017-12-19T21:11:19.461Z,5.50
2017-12-19T21:13:49.914Z,5.50
2017-12-19T21:16:18.299Z,5.50
2017-12-19T21:18:46.583Z,5.50
2017-12-19T21:21:14.934Z,5.50
2017-12-19T21:23:43.177Z,5.60
2017-12-19T21:26:11.454Z,5.60
2017-12-19T21:28:39.707Z,5.60
2017-12-19T21:31:07.955Z,5.70
2017-12-19T21:33:37.352Z,5.70
2017-12-19T21:36:05.631Z,5.70
2017-12-19T21:38:34.051Z,5.80
2017-12-19T21:41:04.263Z,5.80
2017-12-19T21:43:35.375Z,5.70
2017-12-19T21:46:03.751Z,5.70
2017-12-19T21:48:32.031Z,5.70
2017-12-19T21:51:00.274Z,5.70
2017-12-19T21:53:28.587Z,5.70
2017-12-19T21:55:57.274Z,5.70
2017-12-19T21:58:25.731Z,5.70
2017-12-19T22:00:54.107Z,5.70
2017-12-19T22:03:22.374Z,5.70
2017-12-19T22:05:51.717Z,5.70
2017-12-19T22:08:21.935Z,5.70
2017-12-19T22:10:50.343Z,5.70
2017-12-19T22:13:19.366Z,5.70
2017-12-19T22:15:47.682Z,5.70
2017-12-19T22:18:16.447Z,5.70
2017-12-19T22:20:44.686Z,5.80
2017-12-19T22:23:13.326Z,5.70
2017-12-19T22:25:41.591Z,5.70
2017-12-19T22:28:09.887Z,5.70
2017-12-19T22:30:38.262Z,5.70
2017-12-19T22:33:06.686Z,5.60
2017-12-19T22:35:36.871Z,5.60
2017-12-19T22:38:05.119Z,5.60
2017-12-19T22:40:33.710Z,5.70
2017-12-19T22:43:02.003Z,5.70
2017-12-19T22:45:30.271Z,5.70
2017-12-19T22:47:58.651Z,5.70
2017-12-19T22:50:26.895Z,5.70
2017-12-19T22:52:55.255Z,5.70
2017-12-19T22:55:23.527Z,5.80
2017-12-19T22:57:52.573Z,5.90
2017-12-19T23:00:21.895Z,5.90
2017-12-19T23:02:50.303Z,5.90
2017-12-19T23:05:19.321Z,5.70
2017-12-19T23:07:47.571Z,5.70
2017-12-19T23:10:15.869Z,5.80
2017-12-19T23:12:44.115Z,5.80
2017-12-19T23:15:13.119Z,6.00
2017-12-19T23:17:42.159Z,6.00
2017-12-19T23:20:10.407Z,5.90
2017-12-19T23:22:38.666Z,6.00
2017-12-19T23:25:09.450Z,6.00
2017-12-19T23:27:37.694Z,6.10
2017-12-19T23:30:05.987Z,6.10
2017-12-19T23:32:34.235Z,6.10
2017-12-19T23:35:03.248Z,6.00
2017-12-19T23:37:31.619Z,6.00
2017-12-19T23:39:59.894Z,6.00
2017-12-19T23:42:28.151Z,5.90
2017-12-19T23:44:57.327Z,6.00
2017-12-19T23:47:25.968Z,5.90
2017-12-19T23:49:54.218Z,5.90
2017-12-19T23:52:22.478Z,5.80
2017-12-19T23:54:50.847Z,5.90
2017-12-19T23:57:19.082Z,5.90
2017-12-19T23:59:47.326Z,6.00
